Thunder radar more information blitzortung!


Löydät sääaseman tiedot myös:

European Weather Network

Finland Weather Exchange

Weather Underground

AWEKAS



Weather Underground säähistoriasivu

Päivittäin yhteenveto Maaliskuu 27, 2017 Yksiköt:  Englantilaiset    Metriset   Molemmat
« Edellinen Päivä
Seuraava Päivä »
Päivittäin Viikoittain Kuukausittain Vuosittain Mukautettu
  Korkea: Matala: Keskiarvo:
Lämpötila: TemperatureC °F 0.8 °F 4.6 °F
Kastepiste: DewpointC °F -3.0 °F -0.2 °F
Kosteus: Humidity % 51 % 70 %
Tuulen nopeus: WindSpeedKMH mph 0.0 mph 6.3 mph
Tuulenpuuska: WindSpeedGustKMH mph - -
Tuuli:- - West
Ilmanpaine: PressurehPa in 997.2 in -
Sade: 0.0 in    
Historical Graphs
 
 
Taulukkotiedot Maaliskuu 27, 2017
Aika Lämpötila Kastepiste Ilmanpaine Tuuli Tuulen nopeus Tuulenpuuska Kosteus Sademäärä (tunneittain)
TemperatureC °F DewpointC °F PressurehPa in Calm     Humidity % HourlyPrecipMM in
00:00 4.3 °F -2.5 °F 1008.4 in NW 9.7 mph 22.5 mph 61 % 0.0 in
00:15 4.2 °F -2.5 °F 1008.4 in NW 9.7 mph 30.6 mph 62 % 0.0 in
00:30 4.0 °F -2.4 °F 1008.7 in NW 8.0 mph 19.3 mph 63 % 0.0 in
00:45 3.8 °F -2.6 °F 1009.0 in NW 6.4 mph 16.1 mph 63 % 0.0 in
01:00 3.7 °F -2.5 °F 1009.0 in NW 8.0 mph 20.9 mph 64 % 0.0 in
01:15 3.5 °F -2.5 °F 1009.4 in WNW 8.0 mph 22.5 mph 65 % 0.0 in
01:30 3.4 °F -2.5 °F 1009.4 in NW 8.0 mph 14.5 mph 65 % 0.0 in
01:45 3.2 °F -2.5 °F 1009.4 in NW 6.4 mph 16.1 mph 66 % 0.0 in
02:00 3.1 °F -2.4 °F 1009.4 in NW 6.4 mph 14.5 mph 67 % 0.0 in
02:15 2.9 °F -2.6 °F 1009.7 in NW 6.4 mph 17.7 mph 67 % 0.0 in
02:30 2.7 °F -2.7 °F 1009.7 in WNW 4.8 mph 16.1 mph 68 % 0.0 in
02:45 2.5 °F -2.4 °F 1009.7 in WNW 6.4 mph 20.9 mph 70 % 0.0 in
03:00 2.5 °F -2.4 °F 1009.7 in NW 8.0 mph 20.9 mph 70 % 0.0 in
03:15 2.5 °F -2.4 °F 1009.7 in NW 8.0 mph 22.5 mph 70 % 0.0 in
03:30 2.6 °F -2.3 °F 1010.0 in NW 8.0 mph 19.3 mph 70 % 0.0 in
03:45 2.6 °F -2.4 °F 1010.0 in NW 9.7 mph 17.7 mph 70 % 0.0 in
04:00 2.4 °F -2.3 °F 1010.0 in NW 6.4 mph 17.7 mph 71 % 0.0 in
04:15 2.3 °F -2.4 °F 1010.0 in NW 6.4 mph 16.1 mph 71 % 0.0 in
04:30 2.3 °F -2.3 °F 1010.0 in NW 6.4 mph 17.7 mph 72 % 0.0 in
04:45 2.2 °F -2.3 °F 1010.0 in NW 4.8 mph 9.7 mph 72 % 0.0 in
05:00 2.3 °F -2.1 °F 1010.4 in WNW 4.8 mph 16.1 mph 73 % 0.0 in
05:15 2.3 °F -2.1 °F 1010.0 in NW 3.2 mph 12.9 mph 73 % 0.0 in
05:30 2.2 °F -2.0 °F 1010.0 in West 3.2 mph 12.9 mph 74 % 0.0 in
05:45 1.9 °F -2.0 °F 1009.7 in WNW 3.2 mph 11.3 mph 75 % 0.0 in
06:00 1.9 °F -1.8 °F 1010.0 in West 3.2 mph 14.5 mph 76 % 0.0 in
06:15 2.2 °F -1.6 °F 1009.7 in West 3.2 mph 9.7 mph 76 % 0.0 in
06:30 2.3 °F -1.6 °F 1009.7 in WNW 3.2 mph 14.5 mph 75 % 0.0 in
06:45 2.4 °F -1.4 °F 1009.4 in West 3.2 mph 8.0 mph 76 % 0.0 in
07:00 2.4 °F -1.4 °F 1009.4 in WNW 3.2 mph 12.9 mph 76 % 0.0 in
07:15 2.4 °F -1.2 °F 1009.4 in West 3.2 mph 12.9 mph 77 % 0.0 in
07:30 2.5 °F -1.1 °F 1009.4 in WNW 4.8 mph 14.5 mph 77 % 0.0 in
07:45 2.4 °F -1.2 °F 1008.7 in West 3.2 mph 14.5 mph 77 % 0.0 in
08:00 2.5 °F -0.9 °F 1008.7 in West 1.6 mph 11.3 mph 78 % 0.0 in
08:15 2.6 °F -0.9 °F 1008.4 in West 3.2 mph 8.0 mph 78 % 0.0 in
08:30 2.8 °F -0.9 °F 1007.7 in WSW 1.6 mph 9.7 mph 77 % 0.0 in
08:45 3.1 °F -0.5 °F 1008.4 in West 3.2 mph 11.3 mph 77 % 0.0 in
09:00 3.3 °F -0.5 °F 1008.0 in WSW 3.2 mph 12.9 mph 76 % 0.0 in
09:15 3.5 °F -0.2 °F 1007.7 in SW 1.6 mph 8.0 mph 77 % 0.0 in
09:30 3.8 °F -0.1 °F 1007.0 in WSW 3.2 mph 9.7 mph 76 % 0.0 in
09:45 3.9 °F 0.1 °F 1007.0 in WSW 4.8 mph 16.1 mph 76 % 0.0 in
10:00 4.4 °F 0.2 °F 1006.7 in WSW 4.8 mph 19.3 mph 74 % 0.0 in
10:15 4.8 °F 0.3 °F 1006.3 in West 4.8 mph 14.5 mph 73 % 0.0 in
10:30 4.9 °F 0.3 °F 1006.3 in West 6.4 mph 17.7 mph 72 % 0.0 in
10:45 5.2 °F 0.9 °F 1005.6 in West 4.8 mph 14.5 mph 74 % 0.0 in
11:00 5.1 °F 1.0 °F 1005.3 in West 4.8 mph 11.3 mph 75 % 0.0 in
11:15 4.8 °F 1.1 °F 1005.0 in SSW 6.4 mph 17.7 mph 77 % 0.0 in
11:30 4.4 °F 1.6 °F 1003.9 in SSW 6.4 mph 17.7 mph 82 % 0.0 in
11:45 4.4 °F 1.8 °F 1003.3 in SSW 8.0 mph 20.9 mph 83 % 0.0 in
12:00 4.5 °F 2.0 °F 1002.6 in SSW 6.4 mph 14.5 mph 84 % 0.0 in
12:15 5.0 °F 2.7 °F 1001.9 in SSW 8.0 mph 22.5 mph 85 % 0.0 in
12:30 5.7 °F 3.1 °F 1001.2 in SSW 11.3 mph 22.5 mph 83 % 0.0 in
12:45 6.4 °F 3.4 °F 1000.6 in SW 9.7 mph 25.7 mph 81 % 0.0 in
13:00 6.9 °F 3.9 °F 1000.2 in SW 9.7 mph 19.3 mph 81 % 0.0 in
13:15 6.8 °F 3.9 °F 999.9 in SW 8.0 mph 22.5 mph 82 % 0.0 in
13:30 7.0 °F 4.0 °F 999.5 in SW 8.0 mph 24.1 mph 81 % 0.0 in
13:45 8.0 °F 4.8 °F 999.2 in SW 9.7 mph 27.4 mph 80 % 0.0 in
14:00 8.8 °F 5.3 °F 998.9 in SW 9.7 mph 24.1 mph 79 % 0.0 in
14:15 9.4 °F 5.6 °F 998.9 in WSW 6.4 mph 22.5 mph 77 % 0.0 in
14:30 10.1 °F 5.5 °F 998.9 in WSW 9.7 mph 27.4 mph 73 % 0.0 in
14:45 10.5 °F 5.5 °F 998.5 in West 11.3 mph 25.7 mph 71 % 0.0 in
15:00 10.6 °F 5.5 °F 998.2 in WSW 11.3 mph 29.0 mph 71 % 0.0 in
15:15 10.6 °F 5.2 °F 997.9 in West 9.7 mph 33.8 mph 69 % 0.0 in
15:30 10.9 °F 4.8 °F 997.9 in WSW 9.7 mph 25.7 mph 66 % 0.0 in
15:45 10.3 °F 4.3 °F 997.5 in West 8.0 mph 22.5 mph 66 % 0.0 in
16:00 10.0 °F 3.7 °F 997.5 in West 8.0 mph 22.5 mph 65 % 0.0 in
16:15 10.2 °F 3.4 °F 997.5 in West 8.0 mph 25.7 mph 63 % 0.0 in
16:30 10.1 °F 2.9 °F 997.2 in West 9.7 mph 29.0 mph 61 % 0.0 in
16:45 10.2 °F 2.1 °F 997.2 in WNW 11.3 mph 29.0 mph 57 % 0.0 in
17:00 9.8 °F 1.7 °F 997.5 in WNW 14.5 mph 37.0 mph 57 % 0.0 in
17:15 9.2 °F 1.9 °F 998.2 in NW 17.7 mph 45.1 mph 60 % 0.0 in
17:30 8.9 °F 1.6 °F 998.2 in NW 14.5 mph 35.4 mph 60 % 0.0 in
17:45 8.6 °F -0.2 °F 998.9 in NW 17.7 mph 38.6 mph 54 % 0.0 in
18:00 8.1 °F 0.0 °F 999.2 in NW 14.5 mph 56.3 mph 57 % 0.0 in
18:15 7.6 °F -0.4 °F 999.5 in NW 14.5 mph 32.2 mph 57 % 0.0 in
18:30 7.3 °F -0.4 °F 999.9 in NW 12.9 mph 33.8 mph 58 % 0.0 in
18:45 7.1 °F -1.8 °F 1000.6 in NNW 11.3 mph 27.4 mph 53 % 0.0 in
19:00 6.9 °F -2.5 °F 1000.6 in NW 14.5 mph 45.1 mph 51 % 0.0 in
19:15 6.5 °F -2.9 °F 1000.9 in NNW 9.7 mph 22.5 mph 51 % 0.0 in
19:30 5.9 °F -2.2 °F 1001.6 in North 4.8 mph 12.9 mph 56 % 0.0 in
19:45 5.1 °F -1.4 °F 1002.3 in North 3.2 mph 9.7 mph 63 % 0.0 in
20:00 4.4 °F -1.4 °F 1002.3 in NNW 4.8 mph 14.5 mph 66 % 0.0 in
20:15 3.9 °F -1.2 °F 1002.9 in NNW 1.6 mph 11.3 mph 69 % 0.0 in
20:30 3.6 °F -1.2 °F 1003.3 in NNW 1.6 mph 9.7 mph 71 % 0.0 in
20:45 3.2 °F -1.3 °F 1003.6 in NW 1.6 mph 9.7 mph 72 % 0.0 in
21:00 2.8 °F -1.4 °F 1003.6 in NW 1.6 mph 8.0 mph 74 % 0.0 in
21:15 2.5 °F -1.5 °F 1003.9 in Calm     75 % 0.0 in
21:30 2.1 °F -1.7 °F 1003.9 in Calm     76 % 0.0 in
21:45 1.7 °F -1.8 °F 1004.3 in Calm     78 % 0.0 in
22:00 1.2 °F -1.9 °F 1004.3 in Calm     80 % 0.0 in
22:15 0.8 °F -1.9 °F 1004.3 in Calm   6.4 mph 82 % 0.0 in
22:30 1.3 °F -1.7 °F 1004.6 in NNW 1.6 mph 6.4 mph 80 % 0.0 in
22:45 1.6 °F -1.8 °F 1005.0 in Calm   4.8 mph 78 % 0.0 in
23:00 1.6 °F -2.0 °F 1005.0 in Calm   3.2 mph 77 % 0.0 in
23:15 1.5 °F -2.3 °F 1005.3 in NW 1.6 mph 14.5 mph 76 % 0.0 in
23:30 1.9 °F -2.8 °F 1005.3 in NW 3.2 mph 14.5 mph 71 % 0.0 in
23:45 1.9 °F -3.0 °F 1005.3 in Calm   6.4 mph 70 % 0.0 in
Esan sääasema
Terveisin Weather Underground - 2.75 mb

Alkuperäinen skripti  Jim McMurry - jmcmurry@mwt.net Sovitettu myös templatelle  Wim van der Kuil - Leuven-Template.eu

Laitteet joita käytämme:

Sääasema
Davis VP2

Sääasemaohjelma
Cumulus

Sääaseman tietokone
Asus EeePC

Palveluntarjoaja
Suncomet

Davis VP2

Cumulus

Asus EeePC

Suncomet